Estación Meteorológica Peña el Pijo (Robertgarden) [ 10/16/18 04:22:17 CEST ]

Fecha Hora Presion(HPa) Temp (°C) Humedad % Rocio (°C) Viento ( m/s) Direccion Lluvia 1Hora(mm) Lluvia 24H(mm) LLuvia Total(mm)
2018-Aug-12 01:01:42 1014.100 18.7 76 14.4         287.49
2018-Aug-12 02:01:53 1014.300 17.8 78 13.9         287.49
2018-Aug-12 03:01:22 1013.800 16.6 81 13.3         287.49
2018-Aug-12 04:01:25 1013.400 16.9 82 13.8         287.49
2018-Aug-12 05:01:21 1012.900 15.9 84 13.2         287.49
2018-Aug-12 06:01:25 1012.800 15.1 85 12.6         287.49
2018-Aug-12 07:01:50 1012.800 14.7 86 12.4         287.49
2018-Aug-12 08:01:50 1013.000 14.4 87 12.3         287.49
2018-Aug-12 09:01:50 1012.900 17.7 88 15.7         287.49
2018-Aug-12 10:01:44 1012.700 23.9 71 18.3         287.49
2018-Aug-12 11:01:41 1012.300 29.8 46 16.9         287.49
2018-Aug-12 12:01:47 1012.500 33.6 36 16.3         287.49
2018-Aug-12 13:01:55 1012.100 33.9 28 12.7 3.2 SSW     287.49
2018-Aug-12 14:01:52 1011.900 32.4 28 11.4         287.49
2018-Aug-12 15:02:05 1011.100 33.8 27 12.0         287.49
2018-Aug-12 16:01:59 1010.600 33.5 26 11.2         287.49
2018-Aug-12 17:01:38 1010.000 31.1 33 12.8         287.49
2018-Aug-12 18:01:37 1009.700 28.1 41 13.6         287.49
2018-Aug-12 19:01:50 1009.500 29.9 44 16.3         287.49
2018-Aug-12 20:01:49 1010.000 25.5 50 14.3 0.5 WNW     287.49
2018-Aug-12 21:02:04 1010.600 23.3 51 12.6         287.49
2018-Aug-12 22:01:38 1010.600 19.7 66 13.1         287.49
2018-Aug-12 23:01:44 1011.000 19.4 70 13.8         287.49

Temperatura Máxima:33°    Temperatura Mínima:14°
Presión Máxima:1014.300 Hpa    Presión Mínima:1009.500 Hpa


Volver